createdAt,value
2023-02-08T00:00:18.503Z,6.90
2023-02-08T00:01:17.947Z,7.30
2023-02-08T00:02:18.263Z,5.50
2023-02-08T00:03:18.245Z,5.70
2023-02-08T00:04:17.914Z,5.50
2023-02-08T00:05:17.883Z,5.60
2023-02-08T00:06:17.924Z,6.20
2023-02-08T00:07:17.862Z,5.20
2023-02-08T00:08:17.852Z,5.50
2023-02-08T00:09:17.839Z,5.20
2023-02-08T00:10:17.864Z,6.60
2023-02-08T00:11:17.896Z,6.60
2023-02-08T00:12:18.053Z,5.10
2023-02-08T00:13:17.790Z,5.10
2023-02-08T00:14:17.825Z,5.90
2023-02-08T00:15:17.846Z,6.70
2023-02-08T00:16:17.922Z,6.20
2023-02-08T00:17:17.741Z,5.50
2023-02-08T00:18:17.753Z,6.00
2023-02-08T00:19:17.727Z,5.50
2023-02-08T00:20:17.763Z,5.60
2023-02-08T00:21:17.913Z,5.50
2023-02-08T00:22:18.065Z,6.00
2023-02-08T00:23:17.670Z,5.50
2023-02-08T00:24:17.686Z,5.70
2023-02-08T00:25:17.652Z,6.20
2023-02-08T00:26:17.692Z,6.30
2023-02-08T00:27:17.895Z,6.20
2023-02-08T00:28:17.728Z,6.50
2023-02-08T00:29:17.610Z,6.70
2023-02-08T00:30:18.273Z,6.00
2023-02-08T00:31:17.707Z,5.20
2023-02-08T00:32:17.627Z,6.20
2023-02-08T00:33:17.579Z,5.20
2023-02-08T00:34:17.632Z,5.90
2023-02-08T00:35:17.859Z,6.60
2023-02-08T00:36:17.549Z,5.10
2023-02-08T00:37:18.267Z,6.10
2023-02-08T00:38:17.539Z,6.00
2023-02-08T00:39:17.513Z,5.30
2023-02-08T00:40:17.507Z,6.60
2023-02-08T00:41:17.472Z,5.80
2023-02-08T00:42:17.484Z,5.70
2023-02-08T00:43:18.272Z,6.60
2023-02-08T00:44:17.456Z,6.20
2023-02-08T00:45:18.074Z,6.10
2023-02-08T00:46:17.628Z,6.80
2023-02-08T00:47:18.274Z,6.50
2023-02-08T00:48:17.413Z,5.50
2023-02-08T00:49:17.421Z,5.90
2023-02-08T00:50:17.420Z,5.20
2023-02-08T00:51:17.408Z,4.90
2023-02-08T00:52:18.107Z,5.40
2023-02-08T00:53:17.352Z,5.80
2023-02-08T00:54:18.006Z,5.50
2023-02-08T00:55:18.274Z,6.00
2023-02-08T00:56:18.146Z,8.00
2023-02-08T00:57:17.305Z,6.50
2023-02-08T00:58:17.817Z,5.80
2023-02-08T00:59:17.310Z,5.80
2023-02-08T01:00:17.273Z,5.40
2023-02-08T01:01:17.362Z,6.20
2023-02-08T01:02:17.300Z,6.30
2023-02-08T01:03:17.276Z,5.70
2023-02-08T01:04:17.278Z,5.50
2023-02-08T01:05:17.237Z,5.30
2023-02-08T01:06:17.203Z,6.00
2023-02-08T01:07:17.284Z,7.90
2023-02-08T01:08:17.180Z,5.60
2023-02-08T01:09:17.189Z,6.00
2023-02-08T01:10:17.550Z,6.10
2023-02-08T01:11:17.177Z,5.50
2023-02-08T01:12:17.162Z,5.90
2023-02-08T01:13:17.177Z,5.40
2023-02-08T01:14:17.641Z,5.70
2023-02-08T01:15:17.289Z,5.80
2023-02-08T01:16:17.302Z,5.90
2023-02-08T01:17:17.090Z,5.80
2023-02-08T01:18:17.731Z,5.40
2023-02-08T01:19:17.092Z,7.50
2023-02-08T01:20:17.064Z,6.30
2023-02-08T01:21:17.045Z,7.50
2023-02-08T01:22:17.037Z,7.80
2023-02-08T01:23:17.301Z,7.80
2023-02-08T01:24:17.011Z,7.50
2023-02-08T01:25:17.295Z,7.20
2023-02-08T01:26:17.528Z,7.80
2023-02-08T01:27:16.978Z,7.60
2023-02-08T01:28:16.982Z,7.80
2023-02-08T01:29:16.950Z,7.80
2023-02-08T01:30:16.953Z,7.80
2023-02-08T01:31:17.187Z,7.60
2023-02-08T01:32:17.843Z,8.20
2023-02-08T01:33:16.904Z,7.20
2023-02-08T01:34:17.001Z,7.60
2023-02-08T01:35:16.944Z,6.70
2023-02-08T01:36:17.232Z,8.00
2023-02-08T01:37:16.878Z,7.10
2023-02-08T01:38:17.028Z,6.70
2023-02-08T01:39:16.860Z,6.00
2023-02-08T01:40:17.389Z,7.20
2023-02-08T01:41:17.112Z,6.50
2023-02-08T01:42:17.913Z,6.00
2023-02-08T01:43:17.121Z,7.80
2023-02-08T01:44:16.946Z,6.50
2023-02-08T01:45:16.782Z,7.50
2023-02-08T01:46:16.746Z,6.70
2023-02-08T01:47:17.312Z,6.60
2023-02-08T01:48:17.305Z,5.80
2023-02-08T01:49:17.081Z,5.90
2023-02-08T01:50:16.721Z,7.00
2023-02-08T01:51:16.717Z,5.60
2023-02-08T01:52:16.723Z,6.90
2023-02-08T01:53:16.794Z,6.50
2023-02-08T01:54:16.659Z,5.60
2023-02-08T01:55:16.705Z,7.00
2023-02-08T01:56:16.723Z,6.70
2023-02-08T01:57:16.724Z,5.70
2023-02-08T01:58:16.763Z,6.20
2023-02-08T01:59:16.631Z,7.00
2023-02-08T02:00:16.589Z,5.50
2023-02-08T02:01:16.639Z,6.20
2023-02-08T02:02:16.861Z,7.10
2023-02-08T02:03:16.890Z,6.00
2023-02-08T02:04:16.604Z,6.00
2023-02-08T02:05:16.941Z,5.70
2023-02-08T02:06:16.958Z,6.20
2023-02-08T02:07:16.520Z,6.30
2023-02-08T02:08:16.937Z,7.10
2023-02-08T02:09:16.516Z,6.00
2023-02-08T02:10:17.093Z,6.10
2023-02-08T02:11:16.795Z,5.50
2023-02-08T02:12:17.113Z,6.10
2023-02-08T02:13:16.477Z,6.40
2023-02-08T02:14:16.487Z,5.30
2023-02-08T02:15:17.190Z,5.70
2023-02-08T02:16:16.448Z,6.70
2023-02-08T02:17:16.433Z,5.90
2023-02-08T02:18:17.266Z,6.60
2023-02-08T02:19:16.394Z,6.60
2023-02-08T02:20:17.019Z,5.10
2023-02-08T02:21:16.384Z,5.90
2023-02-08T02:22:16.895Z,6.00
2023-02-08T02:23:16.339Z,6.20
2023-02-08T02:24:16.350Z,5.30
2023-02-08T02:25:16.354Z,6.60
2023-02-08T02:26:16.505Z,7.40
2023-02-08T02:27:16.344Z,5.80
2023-02-08T02:28:17.133Z,5.60
2023-02-08T02:29:16.348Z,6.00
2023-02-08T02:30:16.336Z,5.70
2023-02-08T02:31:16.290Z,6.00
2023-02-08T02:32:16.241Z,5.90
2023-02-08T02:33:16.242Z,6.80
2023-02-08T02:34:16.233Z,5.90
2023-02-08T02:35:16.361Z,6.10
2023-02-08T02:36:16.284Z,6.10
2023-02-08T02:37:16.346Z,5.30
2023-02-08T02:38:16.392Z,7.40
2023-02-08T02:39:16.327Z,5.90
2023-02-08T02:40:16.190Z,6.00
2023-02-08T02:41:16.157Z,6.40
2023-02-08T02:42:16.227Z,5.90
2023-02-08T02:43:16.120Z,6.30
2023-02-08T02:44:16.278Z,5.70
2023-02-08T02:45:16.332Z,6.10
2023-02-08T02:46:16.236Z,6.20
2023-02-08T02:47:16.358Z,6.60
2023-02-08T02:48:16.302Z,6.00
2023-02-08T02:49:16.073Z,5.20
2023-02-08T02:50:16.069Z,6.20
2023-02-08T02:51:16.097Z,6.30
2023-02-08T02:52:16.113Z,5.70
2023-02-08T02:53:16.026Z,5.00
2023-02-08T02:54:16.059Z,5.60
2023-02-08T02:55:16.106Z,5.30
2023-02-08T02:56:16.220Z,6.60
2023-02-08T02:57:16.255Z,5.80
2023-02-08T02:58:16.268Z,5.60
2023-02-08T02:59:15.954Z,6.10
2023-02-08T03:00:16.323Z,5.70
2023-02-08T03:01:16.391Z,5.50
2023-02-08T03:02:16.377Z,5.90
2023-02-08T03:03:15.919Z,6.30
2023-02-08T03:04:16.096Z,6.10
2023-02-08T03:05:15.896Z,5.70
2023-02-08T03:06:16.151Z,5.70
2023-02-08T03:07:16.382Z,5.60
2023-02-08T03:08:16.545Z,6.00
2023-02-08T03:09:15.867Z,5.20
2023-02-08T03:10:16.568Z,5.30
2023-02-08T03:11:15.823Z,6.20
2023-02-08T03:12:16.372Z,5.40
2023-02-08T03:13:16.226Z,5.00
2023-02-08T03:14:16.027Z,5.10
2023-02-08T03:15:15.813Z,6.00
2023-02-08T03:16:15.951Z,5.70
2023-02-08T03:17:16.247Z,4.80
2023-02-08T03:18:15.880Z,5.70
2023-02-08T03:19:15.912Z,5.10
2023-02-08T03:20:15.697Z,4.80
2023-02-08T03:21:15.718Z,6.40
2023-02-08T03:22:16.387Z,5.20
2023-02-08T03:23:16.391Z,5.50
2023-02-08T03:24:16.050Z,5.40
2023-02-08T03:25:16.400Z,4.90
2023-02-08T03:26:16.380Z,5.60
2023-02-08T03:27:15.657Z,4.90
2023-02-08T03:28:15.675Z,6.00
2023-02-08T03:29:15.633Z,6.30
2023-02-08T03:30:15.672Z,6.10
2023-02-08T03:31:15.822Z,6.10
2023-02-08T03:32:15.718Z,5.70
2023-02-08T03:33:15.777Z,5.20
2023-02-08T03:34:15.668Z,4.90
2023-02-08T03:35:15.820Z,5.00
2023-02-08T03:36:15.843Z,6.10
2023-02-08T03:37:15.556Z,7.60
2023-02-08T03:38:15.513Z,5.80
2023-02-08T03:39:15.524Z,5.90
2023-02-08T03:40:15.968Z,5.10
2023-02-08T03:41:16.000Z,5.80
2023-02-08T03:42:15.688Z,6.20
2023-02-08T03:43:15.467Z,5.50
2023-02-08T03:44:15.433Z,5.20
2023-02-08T03:45:15.446Z,5.20
2023-02-08T03:46:15.480Z,5.60
2023-02-08T03:47:15.455Z,5.60
2023-02-08T03:48:15.406Z,5.80
2023-02-08T03:49:15.394Z,5.30
2023-02-08T03:50:15.404Z,5.60
2023-02-08T03:51:15.379Z,5.90
2023-02-08T03:52:15.400Z,4.80
2023-02-08T03:53:15.416Z,5.00
2023-02-08T03:54:15.320Z,5.90
2023-02-08T03:55:15.324Z,6.10
2023-02-08T03:56:15.424Z,5.80
2023-02-08T03:57:15.421Z,5.50
2023-02-08T03:58:15.368Z,5.40
2023-02-08T03:59:15.308Z,5.20
2023-02-08T04:00:15.261Z,5.70
2023-02-08T04:01:15.271Z,5.90
2023-02-08T04:02:15.459Z,5.50
2023-02-08T04:03:15.255Z,5.80
2023-02-08T04:04:15.414Z,6.40
2023-02-08T04:05:15.229Z,5.50
2023-02-08T04:06:15.411Z,6.00
2023-02-08T04:07:15.428Z,6.10
2023-02-08T04:08:15.184Z,6.00
2023-02-08T04:09:15.165Z,6.60
2023-02-08T04:10:15.228Z,5.40
2023-02-08T04:11:15.145Z,5.80
2023-02-08T04:12:15.415Z,6.00
2023-02-08T04:13:15.119Z,5.80
2023-02-08T04:14:15.264Z,5.70
2023-02-08T04:15:15.108Z,5.50
2023-02-08T04:16:15.423Z,5.10
2023-02-08T04:17:15.067Z,6.30
2023-02-08T04:18:15.078Z,5.90
2023-02-08T04:19:15.061Z,7.00
2023-02-08T04:20:15.133Z,5.70
2023-02-08T04:21:15.038Z,5.10
2023-02-08T04:22:15.206Z,6.50
2023-02-08T04:23:15.235Z,5.70
2023-02-08T04:24:14.987Z,6.00
2023-02-08T04:25:15.006Z,5.80
2023-02-08T04:26:15.331Z,6.60
2023-02-08T04:27:14.972Z,6.20
2023-02-08T04:28:16.444Z,6.00
2023-02-08T04:29:14.947Z,6.00
2023-02-08T04:30:15.428Z,7.00
2023-02-08T04:31:15.037Z,4.80
2023-02-08T04:32:14.917Z,5.70
2023-02-08T04:33:14.928Z,5.40
2023-02-08T04:34:15.562Z,6.20
2023-02-08T04:35:15.446Z,6.00
2023-02-08T04:36:15.629Z,5.30
2023-02-08T04:37:15.439Z,7.50
2023-02-08T04:38:14.845Z,5.80
2023-02-08T04:39:14.854Z,6.60
2023-02-08T04:40:14.829Z,5.10
2023-02-08T04:41:14.839Z,6.40
2023-02-08T04:42:14.926Z,6.60
2023-02-08T04:43:14.779Z,5.40
2023-02-08T04:44:14.802Z,6.80
2023-02-08T04:45:15.004Z,5.70
2023-02-08T04:46:15.033Z,6.90
2023-02-08T04:47:14.745Z,6.00
2023-02-08T04:48:14.735Z,6.10
2023-02-08T04:49:14.727Z,5.90
2023-02-08T04:50:15.120Z,6.60
2023-02-08T04:51:15.168Z,6.30
2023-02-08T04:52:14.685Z,6.60
2023-02-08T04:53:14.669Z,6.50
2023-02-08T04:54:14.869Z,6.60
2023-02-08T04:55:14.685Z,5.30
2023-02-08T04:56:15.283Z,6.00
2023-02-08T04:57:14.716Z,6.00
2023-02-08T04:58:14.716Z,6.10
2023-02-08T04:59:14.589Z,6.90
2023-02-08T05:00:14.719Z,5.60
2023-02-08T05:01:15.424Z,7.30
2023-02-08T05:02:15.428Z,5.10
2023-02-08T05:03:15.452Z,6.00
2023-02-08T05:04:14.545Z,6.30
2023-02-08T05:05:14.579Z,5.80
2023-02-08T05:06:14.534Z,6.60
2023-02-08T05:07:14.505Z,6.40
2023-02-08T05:08:14.617Z,6.20
2023-02-08T05:09:14.635Z,5.70
2023-02-08T05:10:14.515Z,6.20
2023-02-08T05:11:14.706Z,6.10
2023-02-08T05:12:14.459Z,6.10
2023-02-08T05:13:14.441Z,5.10
2023-02-08T05:14:14.463Z,6.40
2023-02-08T05:15:14.436Z,6.70
2023-02-08T05:16:14.440Z,6.00
2023-02-08T05:17:14.402Z,5.10
2023-02-08T05:18:14.474Z,6.30
2023-02-08T05:19:14.370Z,5.70
2023-02-08T05:20:14.380Z,5.40
2023-02-08T05:21:14.482Z,5.60
2023-02-08T05:22:14.470Z,6.50
2023-02-08T05:23:14.330Z,6.50
2023-02-08T05:24:14.358Z,5.60
2023-02-08T05:25:14.724Z,6.00
2023-02-08T05:26:14.484Z,6.20
2023-02-08T05:27:14.285Z,5.70
2023-02-08T05:28:14.329Z,5.90
2023-02-08T05:29:14.255Z,6.70
2023-02-08T05:30:14.485Z,6.20
2023-02-08T05:31:14.434Z,7.60
2023-02-08T05:32:15.323Z,5.60
2023-02-08T05:33:14.233Z,5.70
2023-02-08T05:34:14.243Z,6.70
2023-02-08T05:35:14.260Z,5.60
2023-02-08T05:36:14.199Z,5.80
2023-02-08T05:37:14.190Z,5.80
2023-02-08T05:38:14.344Z,5.60
2023-02-08T05:39:14.131Z,5.40
2023-02-08T05:40:14.385Z,5.50
2023-02-08T05:41:14.408Z,5.30
2023-02-08T05:42:14.448Z,7.30
2023-02-08T05:43:14.126Z,5.80
2023-02-08T05:44:14.086Z,5.60
2023-02-08T05:45:14.074Z,6.50
2023-02-08T05:46:14.102Z,6.10
2023-02-08T05:47:14.064Z,5.80
2023-02-08T05:48:14.048Z,5.60
2023-02-08T05:49:14.042Z,5.10
2023-02-08T05:50:14.093Z,5.50
2023-02-08T05:51:14.044Z,5.70
2023-02-08T05:52:14.013Z,5.60
2023-02-08T05:53:13.987Z,7.70
2023-02-08T05:54:14.234Z,5.40
2023-02-08T05:55:13.988Z,6.00
2023-02-08T05:56:13.955Z,5.10
2023-02-08T05:57:14.339Z,6.60
2023-02-08T05:58:14.385Z,6.20
2023-02-08T05:59:13.901Z,5.60
2023-02-08T06:00:13.907Z,7.00
2023-02-08T06:01:13.930Z,5.80
2023-02-08T06:02:13.900Z,4.70
2023-02-08T06:03:13.971Z,7.20
2023-02-08T06:04:13.889Z,5.20
2023-02-08T06:05:13.832Z,7.00
2023-02-08T06:06:14.524Z,5.30
2023-02-08T06:07:13.832Z,5.90
2023-02-08T06:08:13.819Z,5.90
2023-02-08T06:09:13.797Z,6.00
2023-02-08T06:10:14.497Z,6.10
2023-02-08T06:11:13.772Z,6.30
2023-02-08T06:12:14.520Z,5.90
2023-02-08T06:13:14.032Z,6.50
2023-02-08T06:14:14.309Z,5.70
2023-02-08T06:15:13.730Z,7.80
2023-02-08T06:16:13.751Z,5.10
2023-02-08T06:17:13.720Z,6.20
2023-02-08T06:18:14.335Z,6.10
2023-02-08T06:19:13.690Z,6.20
2023-02-08T06:20:14.519Z,5.50
2023-02-08T06:21:14.509Z,5.90
2023-02-08T06:22:14.509Z,6.50
2023-02-08T06:23:14.492Z,6.00
2023-02-08T06:24:13.650Z,5.80
2023-02-08T06:25:14.505Z,5.70
2023-02-08T06:26:14.507Z,5.60
2023-02-08T06:27:13.591Z,6.30
2023-02-08T06:28:13.629Z,6.20
2023-02-08T06:29:13.623Z,6.10
2023-02-08T06:30:13.578Z,7.80
2023-02-08T06:31:13.603Z,5.20
2023-02-08T06:32:13.643Z,7.00
2023-02-08T06:33:15.751Z,6.10
2023-02-08T06:34:13.533Z,5.90
2023-02-08T06:35:13.520Z,6.00
2023-02-08T06:36:13.497Z,6.70
2023-02-08T06:37:13.520Z,6.60
2023-02-08T06:38:13.545Z,6.80
2023-02-08T06:39:13.513Z,6.10
2023-02-08T06:40:13.472Z,7.30
2023-02-08T06:41:13.450Z,6.70
2023-02-08T06:42:13.454Z,6.10
2023-02-08T06:43:13.410Z,7.00
2023-02-08T06:44:13.422Z,6.50
2023-02-08T06:45:13.822Z,7.00
2023-02-08T06:46:13.440Z,6.00
2023-02-08T06:47:13.523Z,6.70
2023-02-08T06:48:13.373Z,5.80
2023-02-08T06:49:13.521Z,6.50
2023-02-08T06:50:13.476Z,5.60
2023-02-08T06:51:13.360Z,6.30
2023-02-08T06:52:13.538Z,5.60
2023-02-08T06:53:13.552Z,6.30
2023-02-08T06:54:13.537Z,7.00
2023-02-08T06:55:13.293Z,6.90
2023-02-08T06:56:13.301Z,6.40
2023-02-08T06:57:13.282Z,6.10
2023-02-08T06:58:14.225Z,6.30
2023-02-08T06:59:13.251Z,6.40
2023-02-08T07:00:13.240Z,6.00
2023-02-08T07:01:13.320Z,6.50
2023-02-08T07:02:13.277Z,7.30
2023-02-08T07:03:13.191Z,6.10
2023-02-08T07:04:13.193Z,7.50
2023-02-08T07:05:13.181Z,5.80
2023-02-08T07:06:13.176Z,6.00
2023-02-08T07:07:13.149Z,6.00
2023-02-08T07:08:13.162Z,6.60
2023-02-08T07:09:13.309Z,5.90
2023-02-08T07:10:13.558Z,5.70
2023-02-08T07:11:13.470Z,6.40
2023-02-08T07:12:13.589Z,6.20
2023-02-08T07:13:13.099Z,6.00
2023-02-08T07:14:13.099Z,6.60
2023-02-08T07:15:13.108Z,5.70
2023-02-08T07:16:13.198Z,6.30
2023-02-08T07:17:13.215Z,6.70
2023-02-08T07:18:13.264Z,6.80
2023-02-08T07:19:13.282Z,7.00
2023-02-08T07:20:13.027Z,5.70
2023-02-08T07:21:13.351Z,6.20
2023-02-08T07:22:12.991Z,7.30
2023-02-08T07:23:12.991Z,6.80
2023-02-08T07:24:12.974Z,6.70
2023-02-08T07:25:13.059Z,6.40
2023-02-08T07:26:13.052Z,6.70
2023-02-08T07:27:12.949Z,6.70
2023-02-08T07:28:13.014Z,6.50
2023-02-08T07:29:13.165Z,6.20
2023-02-08T07:30:13.007Z,6.00
2023-02-08T07:31:12.894Z,7.60
2023-02-08T07:32:12.896Z,5.60
2023-02-08T07:33:13.268Z,5.50
2023-02-08T07:34:13.281Z,6.40
2023-02-08T07:35:12.852Z,5.70
2023-02-08T07:36:12.832Z,6.70
2023-02-08T07:37:13.347Z,6.40
2023-02-08T07:38:13.377Z,6.70
2023-02-08T07:39:12.793Z,6.00
2023-02-08T07:40:12.818Z,5.60
2023-02-08T07:41:13.463Z,6.50
2023-02-08T07:42:13.484Z,6.80
2023-02-08T07:43:13.610Z,6.50
2023-02-08T07:44:12.769Z,7.00
2023-02-08T07:45:12.914Z,7.10
2023-02-08T07:46:13.597Z,6.60
2023-02-08T07:47:13.572Z,6.00
2023-02-08T07:48:12.720Z,6.20
2023-02-08T07:49:13.592Z,6.20
2023-02-08T07:50:12.727Z,5.90
2023-02-08T07:51:12.668Z,6.00
2023-02-08T07:52:12.685Z,6.70
2023-02-08T07:53:13.517Z,6.90
2023-02-08T07:54:13.437Z,6.00
2023-02-08T07:55:12.621Z,6.10
2023-02-08T07:56:12.617Z,7.10
2023-02-08T07:57:12.602Z,6.10
2023-02-08T07:58:12.621Z,6.50
2023-02-08T07:59:12.616Z,6.20
2023-02-08T08:00:12.562Z,7.00
2023-02-08T08:01:21.946Z,7.10
2023-02-08T08:02:13.589Z,7.10
2023-02-08T08:03:12.531Z,6.30
2023-02-08T08:04:12.560Z,7.20
2023-02-08T08:05:12.511Z,6.70
2023-02-08T08:06:12.502Z,6.60
2023-02-08T08:07:12.499Z,6.60
2023-02-08T08:08:12.481Z,6.90
2023-02-08T08:09:12.462Z,5.70
2023-02-08T08:10:12.492Z,6.10
2023-02-08T08:11:12.452Z,5.60
2023-02-08T08:12:12.442Z,5.90
2023-02-08T08:13:12.432Z,6.40
2023-02-08T08:14:12.590Z,6.00
2023-02-08T08:15:12.387Z,7.30
2023-02-08T08:16:12.667Z,6.00
2023-02-08T08:17:12.984Z,7.30
2023-02-08T08:18:12.375Z,6.00
2023-02-08T08:19:12.366Z,6.20
2023-02-08T08:20:12.373Z,5.80
2023-02-08T08:21:12.354Z,6.30
2023-02-08T08:22:12.340Z,6.70
2023-02-08T08:23:12.302Z,6.90
2023-02-08T08:24:12.360Z,5.60
2023-02-08T08:25:12.598Z,7.60
2023-02-08T08:26:12.614Z,6.50
2023-02-08T08:27:12.277Z,5.80
2023-02-08T08:28:12.292Z,6.20
2023-02-08T08:29:12.246Z,6.30
2023-02-08T08:30:12.253Z,6.10
2023-02-08T08:31:12.276Z,6.70
2023-02-08T08:32:12.614Z,6.00
2023-02-08T08:33:12.603Z,6.00
2023-02-08T08:34:12.625Z,5.40
2023-02-08T08:35:12.386Z,5.70
2023-02-08T08:36:12.177Z,5.50
2023-02-08T08:37:12.145Z,5.70
2023-02-08T08:38:12.166Z,5.90
2023-02-08T08:39:12.116Z,5.80
2023-02-08T08:40:12.127Z,5.70
2023-02-08T08:41:12.277Z,6.00
2023-02-08T08:42:12.116Z,5.90
2023-02-08T08:43:12.089Z,6.20
2023-02-08T08:44:12.095Z,6.10
2023-02-08T08:45:12.414Z,6.10
2023-02-08T08:46:12.190Z,4.90
2023-02-08T08:47:12.480Z,5.70
2023-02-08T08:48:12.203Z,6.30
2023-02-08T08:49:12.565Z,6.20
2023-02-08T08:50:12.041Z,6.70
2023-02-08T08:51:11.993Z,6.50
2023-02-08T08:52:11.987Z,6.20
2023-02-08T08:53:11.976Z,6.20
2023-02-08T08:54:11.987Z,6.10
2023-02-08T08:55:11.923Z,6.10
2023-02-08T08:56:11.940Z,6.80
2023-02-08T08:57:12.615Z,5.80
2023-02-08T08:58:11.905Z,6.00
2023-02-08T08:59:11.939Z,8.00
2023-02-08T09:00:11.894Z,6.70
2023-02-08T09:01:11.861Z,6.30
2023-02-08T09:02:11.855Z,6.10
2023-02-08T09:03:11.874Z,5.80
2023-02-08T09:04:12.637Z,6.70
2023-02-08T09:05:12.403Z,7.40
2023-02-08T09:06:11.976Z,7.40
2023-02-08T09:07:11.818Z,7.10
2023-02-08T09:08:12.634Z,6.80
2023-02-08T09:09:12.319Z,7.50
2023-02-08T09:10:11.776Z,7.90
2023-02-08T09:11:11.760Z,7.00
2023-02-08T09:12:11.784Z,7.30
2023-02-08T09:13:11.870Z,7.00
2023-02-08T09:14:11.832Z,8.40
2023-02-08T09:15:11.758Z,7.30
2023-02-08T09:16:12.548Z,8.30
2023-02-08T09:17:11.920Z,7.20
2023-02-08T09:18:11.948Z,6.90
2023-02-08T09:19:11.661Z,7.00
2023-02-08T09:20:11.702Z,9.40
2023-02-08T09:21:11.675Z,7.30
2023-02-08T09:22:11.627Z,8.40
2023-02-08T09:23:11.807Z,6.70
2023-02-08T09:24:11.595Z,6.50
2023-02-08T09:25:11.649Z,7.20
2023-02-08T09:26:11.915Z,6.50
2023-02-08T09:27:11.578Z,6.80
2023-02-08T09:28:12.000Z,6.30
2023-02-08T09:29:11.665Z,6.40
2023-02-08T09:30:11.638Z,6.10
2023-02-08T09:31:12.207Z,5.60
2023-02-08T09:32:12.180Z,7.10
2023-02-08T09:33:11.652Z,7.00
2023-02-08T09:34:11.652Z,6.10
2023-02-08T09:35:11.481Z,5.90
2023-02-08T09:36:11.516Z,5.60
2023-02-08T09:37:11.652Z,5.90
2023-02-08T09:38:11.462Z,6.30
2023-02-08T09:39:11.442Z,6.20
2023-02-08T09:40:11.649Z,6.40
2023-02-08T09:41:11.430Z,6.00
2023-02-08T09:42:12.308Z,6.20
2023-02-08T09:43:11.415Z,5.70
2023-02-08T09:44:12.583Z,5.10
2023-02-08T09:45:11.654Z,6.70
2023-02-08T09:46:11.369Z,4.80
2023-02-08T09:47:11.352Z,5.50
2023-02-08T09:48:11.335Z,7.80
2023-02-08T09:49:11.386Z,5.60
2023-02-08T09:50:11.299Z,5.60
2023-02-08T09:51:11.341Z,5.10
2023-02-08T09:52:11.666Z,5.50
2023-02-08T09:53:11.675Z,4.60
2023-02-08T09:54:11.256Z,5.20
2023-02-08T09:55:11.264Z,5.30
2023-02-08T09:56:11.248Z,5.80
2023-02-08T09:57:11.259Z,5.10
2023-02-08T09:58:11.517Z,4.80
2023-02-08T09:59:11.312Z,5.40
2023-02-08T10:00:11.668Z,4.80
2023-02-08T10:01:11.325Z,4.90
2023-02-08T10:02:11.190Z,4.20
2023-02-08T10:03:11.212Z,4.50
2023-02-08T10:04:11.156Z,4.50
2023-02-08T10:05:11.158Z,4.10
2023-02-08T10:06:11.172Z,4.80
2023-02-08T10:07:11.143Z,3.80
2023-02-08T10:08:11.117Z,4.10
2023-02-08T10:09:11.235Z,4.90
2023-02-08T10:10:11.085Z,5.80
2023-02-08T10:11:11.101Z,5.70
2023-02-08T10:12:11.060Z,5.30
2023-02-08T10:13:11.334Z,5.50
2023-02-08T10:14:11.361Z,4.90
2023-02-08T10:15:11.408Z,4.70
2023-02-08T10:16:11.252Z,5.00
2023-02-08T10:17:11.460Z,5.10
2023-02-08T10:18:11.049Z,5.30
2023-02-08T10:19:11.486Z,4.90
2023-02-08T10:20:10.986Z,5.10
2023-02-08T10:21:11.548Z,4.90
2023-02-08T10:22:11.565Z,5.30
2023-02-08T10:23:11.002Z,4.50
2023-02-08T10:24:11.601Z,4.70
2023-02-08T10:25:10.925Z,4.80
2023-02-08T10:26:10.896Z,5.00
2023-02-08T10:27:10.899Z,5.10
2023-02-08T10:28:10.905Z,4.60
2023-02-08T10:29:11.152Z,4.40
2023-02-08T10:30:11.773Z,4.90
2023-02-08T10:31:10.992Z,4.90
2023-02-08T10:32:11.584Z,4.80
2023-02-08T10:33:11.698Z,4.50
2023-02-08T10:34:11.700Z,4.30
2023-02-08T10:35:10.797Z,4.80
2023-02-08T10:36:11.674Z,4.30
2023-02-08T10:37:11.614Z,5.90
2023-02-08T10:38:11.523Z,4.70
2023-02-08T10:39:11.931Z,4.60
2023-02-08T10:40:11.056Z,4.60
2023-02-08T10:41:10.731Z,5.50
2023-02-08T10:42:10.706Z,5.30
2023-02-08T10:43:10.739Z,5.00
2023-02-08T10:44:10.691Z,4.50
2023-02-08T10:45:23.636Z,5.50
2023-02-08T10:46:11.747Z,4.60
2023-02-08T10:47:10.657Z,4.10
2023-02-08T10:48:10.743Z,4.40
2023-02-08T10:49:10.711Z,4.20
2023-02-08T10:50:10.628Z,4.30
2023-02-08T10:51:10.622Z,3.60
2023-02-08T10:52:10.654Z,4.20
2023-02-08T10:53:10.597Z,4.60
2023-02-08T10:54:10.556Z,4.70
2023-02-08T10:55:10.593Z,4.40
2023-02-08T10:56:10.712Z,5.10
2023-02-08T10:57:10.705Z,4.80
2023-02-08T10:58:10.524Z,4.40
2023-02-08T10:59:10.534Z,5.60
2023-02-08T11:00:10.544Z,4.30
2023-02-08T11:01:10.547Z,5.50
2023-02-08T11:02:10.477Z,4.60
2023-02-08T11:03:10.485Z,4.20
2023-02-08T11:04:10.515Z,4.80
2023-02-08T11:05:10.649Z,6.00
2023-02-08T11:06:10.432Z,4.80
2023-02-08T11:07:10.443Z,4.40
2023-02-08T11:08:10.696Z,4.60
2023-02-08T11:09:10.434Z,5.20
2023-02-08T11:10:10.379Z,4.70
2023-02-08T11:11:10.430Z,5.20
2023-02-08T11:12:10.370Z,4.60
2023-02-08T11:13:10.721Z,5.30
2023-02-08T11:14:10.332Z,4.70
2023-02-08T11:15:10.723Z,6.20
2023-02-08T11:16:10.752Z,6.10
2023-02-08T11:17:10.594Z,4.60
2023-02-08T11:18:10.728Z,4.80
2023-02-08T11:19:10.724Z,4.60
2023-02-08T11:20:10.720Z,5.70
2023-02-08T11:21:10.414Z,5.30
2023-02-08T11:22:10.730Z,5.60
2023-02-08T11:23:10.739Z,5.10
2023-02-08T11:24:10.249Z,4.60
2023-02-08T11:25:10.268Z,4.90
2023-02-08T11:26:10.216Z,4.00
2023-02-08T11:27:10.339Z,4.60
2023-02-08T11:28:10.308Z,4.10
2023-02-08T11:29:10.409Z,3.70
2023-02-08T11:30:10.173Z,4.60
2023-02-08T11:31:10.277Z,4.60
2023-02-08T11:32:10.520Z,4.40
2023-02-08T11:33:10.143Z,4.80
2023-02-08T11:34:10.117Z,5.10
2023-02-08T11:35:10.659Z,4.70
2023-02-08T11:36:10.675Z,4.20
2023-02-08T11:37:10.699Z,3.90
2023-02-08T11:38:10.729Z,4.20
2023-02-08T11:39:10.738Z,3.90
2023-02-08T11:40:10.276Z,3.80
2023-02-08T11:41:10.747Z,4.00
2023-02-08T11:42:10.743Z,4.30
2023-02-08T11:43:10.766Z,4.30
2023-02-08T11:44:10.005Z,4.00
2023-02-08T11:45:10.313Z,4.80
2023-02-08T11:46:10.802Z,4.40
2023-02-08T11:47:10.146Z,4.40
2023-02-08T11:48:09.984Z,4.50
2023-02-08T11:49:10.752Z,4.50
2023-02-08T11:50:10.749Z,4.30
2023-02-08T11:51:09.942Z,4.50
2023-02-08T11:52:10.748Z,4.40
2023-02-08T11:53:09.937Z,3.70
2023-02-08T11:54:09.920Z,4.00
2023-02-08T11:55:09.938Z,3.80
2023-02-08T11:56:09.944Z,4.00
2023-02-08T11:57:09.969Z,4.60
2023-02-08T11:58:09.989Z,4.40
2023-02-08T11:59:09.880Z,4.50
2023-02-08T12:00:10.043Z,5.30
2023-02-08T12:01:10.075Z,3.90
2023-02-08T12:02:10.094Z,4.00
2023-02-08T12:03:10.135Z,4.30
2023-02-08T12:04:09.790Z,4.10
2023-02-08T12:05:09.821Z,4.20
2023-02-08T12:06:09.761Z,4.70
2023-02-08T12:07:09.774Z,4.20
2023-02-08T12:08:09.781Z,3.80
2023-02-08T12:09:09.768Z,4.30
2023-02-08T12:10:09.757Z,4.20
2023-02-08T12:11:09.770Z,3.70
2023-02-08T12:12:09.767Z,3.90
2023-02-08T12:13:09.694Z,4.30
2023-02-08T12:14:09.694Z,4.40
2023-02-08T12:15:09.697Z,4.70
2023-02-08T12:16:09.727Z,4.00
2023-02-08T12:17:09.671Z,3.70
2023-02-08T12:18:09.624Z,4.40
2023-02-08T12:19:09.626Z,4.30
2023-02-08T12:20:09.592Z,4.50
2023-02-08T12:21:09.636Z,4.00
2023-02-08T12:22:10.808Z,4.00
2023-02-08T12:23:09.578Z,4.30
2023-02-08T12:24:09.566Z,4.20
2023-02-08T12:25:09.568Z,3.80
2023-02-08T12:26:09.569Z,4.30
2023-02-08T12:27:09.568Z,4.00
2023-02-08T12:28:09.622Z,3.70
2023-02-08T12:29:09.510Z,4.00
2023-02-08T12:30:09.486Z,3.20
2023-02-08T12:31:09.947Z,3.70
2023-02-08T12:32:09.548Z,3.40
2023-02-08T12:33:09.478Z,3.50
2023-02-08T12:34:09.872Z,3.80
2023-02-08T12:35:09.472Z,5.30
2023-02-08T12:36:09.761Z,3.60
2023-02-08T12:37:09.438Z,4.90
2023-02-08T12:38:09.394Z,4.00
2023-02-08T12:39:24.683Z,4.00
2023-02-08T12:40:10.351Z,4.20
2023-02-08T12:41:09.780Z,4.40
2023-02-08T12:42:09.336Z,3.90
2023-02-08T12:43:09.341Z,4.60
2023-02-08T12:44:09.780Z,3.90
2023-02-08T12:45:09.336Z,3.90
2023-02-08T12:46:09.328Z,4.00
2023-02-08T12:47:09.306Z,4.00
2023-02-08T12:48:09.265Z,3.60
2023-02-08T12:49:09.268Z,4.20
2023-02-08T12:50:09.253Z,3.40
2023-02-08T12:51:09.265Z,4.60
2023-02-08T12:52:09.225Z,4.10
2023-02-08T12:53:09.245Z,4.00
2023-02-08T12:54:09.204Z,3.80
2023-02-08T12:55:09.230Z,3.70
2023-02-08T12:56:09.189Z,4.40
2023-02-08T12:57:09.192Z,3.70
2023-02-08T12:58:09.151Z,3.50
2023-02-08T12:59:13.758Z,3.70
2023-02-08T13:00:10.176Z,3.80
2023-02-08T13:01:09.182Z,3.80
2023-02-08T13:02:09.114Z,3.50
2023-02-08T13:03:09.114Z,5.20
2023-02-08T13:04:09.125Z,3.80
2023-02-08T13:05:09.107Z,3.20
2023-02-08T13:06:09.074Z,3.40
2023-02-08T13:07:09.081Z,3.20
2023-02-08T13:08:09.041Z,4.50
2023-02-08T13:09:09.067Z,3.60
2023-02-08T13:10:09.036Z,3.70
2023-02-08T13:11:19.438Z,3.80
2023-02-08T13:12:09.990Z,3.50
2023-02-08T13:13:09.019Z,3.10
2023-02-08T13:14:08.977Z,4.10
2023-02-08T13:15:11.896Z,3.50
2023-02-08T13:16:10.033Z,3.60
2023-02-08T13:17:08.970Z,3.50
2023-02-08T13:18:08.948Z,3.90